Bloomingdale, NJ (07403)

7:52 AM EST on February 27, 2015 (GMT -0500)
Butler Weather | Change Station
CLOSE
Current Station
Personal Weather Station
Location: Butler, NJ
Elevation: 351 ft
Nearby Weather Stations

Elev 351 ft 41.00 °N, 74.34 °W | Updated 2 seconds ago

Mostly Cloudy
Mostly Cloudy
13.6 °F
Feels Like 14 °F
N
0.0
Wind Variable Wind from WNW
Gusts 0.0 mph

Today
High -- | Low -- °F
--% Chance of Precip.
Yesterday
High -- | Low -- °F
Precip. -- in
6:34 AM 5:45 PM
Waxing Gibbous, 68% visible
Pressure 30.36 in
Visibility 10.0 miles
Clouds Mostly Cloudy 4700 ft
Windchill 14 °F
Dew Point -14 °F
Humidity 27%
Rainfall 0.00 in
Snow Depth Not available.
UV 0 out of 12
Pollen .50 out of 12
Air Quality Not available.
Flu Activity Not available.
METAR KCDW 271153Z 00000KT 10SM BKN047 M09/M15 A3034 RMK AO2 SLP281 T10941150 11083 21106 53030

More Conditions Fewer Conditions

Pressure 30.36 in
Visibility 10.0 miles
Clouds Mostly Cloudy 4700 ft
Windchill 14 °F
Dew Point -14 °F
Humidity 27%
Rainfall 0.00 in
Snow Depth Not available.
UV 0 out of 12
Pollen .50 out of 12
Air Quality Not available.
Flu Activity Not available.
METAR KCDW 271153Z 00000KT 10SM BKN047 M09/M15 A3034 RMK AO2 SLP281 T10941150 11083 21106 53030

More Conditions Fewer Conditions

10-Day Weather Forecast

Almanac

Astronomy

Feb. 27, 2015 Rise Set
Actual Time
Civil Twilight
Nautical Twilight
Astronomical Twilight
Moon
Length of Visible Light
Length of Day
Tomorrow will be .
, % of the Moon is Illuminated

Today's Extremes

State Highs State Lows

Community

WunderPhotos

Upload Photos

1,800,667 photos uploaded!

WunderBlogs® & News

Nearby

Air Quality

  Air Quality AQ Index Pollutant
Not available.

Snow Depth

Station Depth Elevation

Earthquake Activity

City Distance Mag. Time & Date
Minimum magnitude displayed is 2.5.

Coastal Water Temperatures

Place Temperature

Nearby Weather Stations